Time;durP1;ratioP1;P1;durP2;ratioP2;P2;SDS_P1;SDS_P2;PMS_P1;PMS_P2;Temp;Humidity;BMP_temperature;BMP_pressure;BME280_temperature;BME280_humidity;BME280_pressure;Samples;Min_cycle;Max_cycle;Signal;HPM_P1;HPM_P2
2022/08/10 00:01:49;;;;;;;2.03;1.93;;;27.20;38.20;;;;;;6183138;23;20408;-72
2022/08/10 00:04:20;;;;;;;2.47;1.90;;;27.20;38.30;;;;;;6182560;23;20726;-72
2022/08/10 00:06:52;;;;;;;2.40;2.20;;;27.20;38.20;;;;;;6183206;23;20495;-72
2022/08/10 00:09:21;;;;;;;2.40;2.20;;;27.20;38.20;;;;;;6183055;23;20428;-72
2022/08/10 00:11:50;;;;;;;2.80;2.00;;;27.20;38.20;;;;;;6208285;23;20419;-72
2022/08/10 00:14:18;;;;;;;2.33;2.13;;;27.20;38.30;;;;;;6183482;23;20388;-72
2022/08/10 00:16:47;;;;;;;2.67;2.47;;;27.20;38.30;;;;;;6183045;23;20450;-72
2022/08/10 00:19:15;;;;;;;2.53;2.33;;;27.20;38.20;;;;;;6181861;23;20907;-72
2022/08/10 00:21:46;;;;;;;4.03;2.20;;;27.20;38.30;;;;;;6183346;23;20407;-72
2022/08/10 00:24:16;;;;;;;2.30;2.10;;;27.20;38.20;;;;;;6158355;23;20864;-72
2022/08/10 00:26:44;;;;;;;2.40;2.20;;;27.20;38.20;;;;;;6182316;23;20380;-72
2022/08/10 00:29:33;;;;;;;3.03;2.40;;;27.10;38.20;;;;;;6181666;23;20427;-72
2022/08/10 00:32:02;;;;;;;3.33;3.00;;;27.20;38.30;;;;;;6183419;23;20434;-72
2022/08/10 00:34:32;;;;;;;2.30;2.10;;;27.20;38.30;;;;;;6171834;23;20452;-68
2022/08/10 00:37:01;;;;;;;2.00;1.90;;;27.20;38.40;;;;;;6154998;23;20735;-67
2022/08/10 00:39:31;;;;;;;2.60;2.40;;;27.20;38.40;;;;;;6181191;23;20432;-67
2022/08/10 00:42:04;;;;;;;3.70;2.50;;;27.10;38.30;;;;;;6209319;23;20404;-67
2022/08/10 00:44:36;;;;;;;2.93;2.33;;;27.20;38.30;;;;;;6180636;23;20436;-67
2022/08/10 00:47:06;;;;;;;3.17;2.77;;;27.10;38.20;;;;;;6207494;23;20690;-67
2022/08/10 00:49:55;;;;;;;2.40;2.20;;;27.20;38.30;;;;;;6206196;23;20431;-67
2022/08/10 00:52:24;;;;;;;3.10;2.60;;;27.10;38.20;;;;;;6208834;23;20431;-67
2022/08/10 00:54:54;;;;;;;3.70;2.30;;;27.10;38.50;;;;;;6181107;23;20435;-67
2022/08/10 00:57:24;;;;;;;2.40;2.20;;;27.10;38.40;;;;;;6182409;23;20373;-67
2022/08/10 00:59:52;;;;;;;2.00;1.73;;;27.20;38.60;;;;;;6181770;23;20873;-67
2022/08/10 01:02:28;;;;;;;2.47;1.87;;;27.20;38.50;;;;;;6207726;23;20486;-67
2022/08/10 01:04:59;;;;;;;2.53;2.33;;;27.10;38.50;;;;;;6179641;23;20442;-67
2022/08/10 01:07:53;;;;;;;2.93;2.13;;;27.10;38.50;;;;;;6182262;23;20368;-67
2022/08/10 01:10:32;;;;;;;2.23;1.97;;;27.10;39.70;;;;;;6180502;23;20456;-67
2022/08/10 01:13:06;;;;;;;2.60;2.40;;;27.10;38.40;;;;;;6180785;23;20443;-67
2022/08/10 01:15:40;;;;;;;2.40;2.20;;;27.10;38.60;;;;;;6206572;23;20473;-68
2022/08/10 01:18:14;;;;;;;2.87;2.40;;;27.10;38.60;;;;;;6181498;23;20450;-68
2022/08/10 01:20:57;;;;;;;2.70;2.00;;;27.10;38.60;;;;;;6205935;23;20440;-67
2022/08/10 01:24:01;;;;;;;2.57;2.37;;;27.10;38.50;;;;;;6180390;23;20372;-68
2022/08/10 01:26:53;;;;;;;2.43;2.23;;;27.10;38.60;;;;;;6207637;23;20412;-68
2022/08/10 01:29:53;;;;;;;3.00;2.30;;;27.10;38.40;;;;;;6208537;23;20392;-68
2022/08/10 01:32:30;;;;;;;3.27;2.60;;;27.10;38.30;;;;;;6168602;23;20440;-67
2022/08/10 01:35:05;;;;;;;2.50;2.23;;;27.10;38.50;;;;;;6179640;23;20435;-67
2022/08/10 01:37:41;;;;;;;2.07;1.70;;;27.10;38.50;;;;;;6181566;23;20384;-67
2022/08/10 01:40:12;;;;;;;2.20;2.03;;;27.10;38.60;;;;;;6181018;23;20436;-68
2022/08/10 01:42:45;;;;;;;2.93;2.73;;;27.10;38.60;;;;;;6179913;23;20463;-68
2022/08/10 01:45:17;;;;;;;2.20;2.00;;;27.10;38.60;;;;;;6181413;23;20824;-68
2022/08/10 01:50:47;;;;;;;2.90;2.00;;;27.10;38.80;;;;;;6182007;23;20459;-68
2022/08/10 01:53:37;;;;;;;2.80;2.57;;;27.10;40.00;;;;;;6182162;23;20599;-68
2022/08/10 01:56:12;;;;;;;2.87;2.40;;;27.00;38.80;;;;;;6182389;23;20392;-67
2022/08/10 01:58:42;;;;;;;2.20;2.00;;;27.00;38.90;;;;;;6206199;23;20376;-68
2022/08/10 02:01:14;;;;;;;2.60;2.40;;;27.00;38.80;;;;;;6182682;23;20789;-68
2022/08/10 02:03:47;;;;;;;3.40;2.67;;;27.10;38.70;;;;;;6183013;23;20850;-68
2022/08/10 02:06:35;;;;;;;4.30;2.77;;;27.00;38.60;;;;;;6185637;23;20856;-68
2022/08/10 02:09:06;;;;;;;2.50;2.30;;;27.10;38.90;;;;;;6159986;23;20396;-68
2022/08/10 02:11:35;;;;;;;2.60;2.40;;;27.00;38.70;;;;;;6185311;23;20515;-68
2022/08/10 02:14:29;;;;;;;2.33;2.23;;;27.00;38.90;;;;;;6183366;23;20843;-68
2022/08/10 02:17:06;;;;;;;2.60;2.40;;;27.00;38.80;;;;;;6184904;23;20368;-68
2022/08/10 02:19:36;;;;;;;3.20;2.90;;;27.00;38.80;;;;;;6184724;23;20845;-67
2022/08/10 02:22:08;;;;;;;2.67;2.47;;;27.00;38.80;;;;;;6184469;23;20407;-68
2022/08/10 02:24:57;;;;;;;2.60;2.40;;;27.00;39.00;;;;;;6210010;23;20948;-67
2022/08/10 02:27:28;;;;;;;2.37;2.17;;;27.00;39.00;;;;;;6209068;23;20414;-68
2022/08/10 02:29:58;;;;;;;3.57;2.43;;;27.00;38.90;;;;;;6182926;23;20897;-67
2022/08/10 02:32:30;;;;;;;2.50;2.30;;;27.00;38.90;;;;;;6184589;23;20459;-67
2022/08/10 02:35:10;;;;;;;2.83;2.50;;;27.00;39.00;;;;;;6182455;23;20431;-67
2022/08/10 02:37:52;;;;;;;2.33;2.13;;;27.00;39.00;;;;;;6184952;23;20459;-68
2022/08/10 02:40:24;;;;;;;2.77;2.57;;;27.00;38.90;;;;;;6183701;23;20432;-68
2022/08/10 02:43:25;;;;;;;3.90;3.10;;;26.90;38.90;;;;;;6209329;23;20376;-67
2022/08/10 02:46:17;;;;;;;2.60;2.40;;;27.00;38.90;;;;;;6209651;23;20446;-67
2022/08/10 02:48:58;;;;;;;2.87;2.67;;;26.90;38.90;;;;;;6183812;23;20384;-67
2022/08/10 02:51:35;;;;;;;2.83;2.63;;;27.00;39.10;;;;;;6210657;23;20408;-67
2022/08/10 02:54:43;;;;;;;3.67;2.73;;;27.00;39.00;;;;;;6208198;23;20473;-68
2022/08/10 02:57:17;;;;;;;3.27;3.07;;;27.00;39.00;;;;;;6184139;23;20387;-68
2022/08/10 02:59:49;;;;;;;2.97;2.67;;;26.90;38.90;;;;;;6210406;23;20515;-68
2022/08/10 03:02:29;;;;;;;2.77;2.57;;;26.90;38.90;;;;;;6181844;23;20415;-68
2022/08/10 03:05:04;;;;;;;3.77;3.43;;;26.90;38.90;;;;;;6178780;23;20912;-67
2022/08/10 03:07:39;;;;;;;2.60;2.40;;;26.90;38.90;;;;;;6206750;23;20438;-68
2022/08/10 03:10:15;;;;;;;4.13;3.20;;;26.90;39.00;;;;;;6180340;23;20768;-68
2022/08/10 03:12:45;;;;;;;2.47;2.27;;;26.90;38.90;;;;;;6204736;23;20484;-68
2022/08/10 03:15:15;;;;;;;2.50;2.30;;;26.90;39.00;;;;;;6207012;23;20455;-68
2022/08/10 03:17:45;;;;;;;2.90;2.70;;;26.90;38.90;;;;;;6206143;23;20392;-67
2022/08/10 03:20:30;;;;;;;3.03;2.83;;;26.90;38.90;;;;;;6206172;23;20431;-69
2022/08/10 03:23:11;;;;;;;3.00;2.73;;;26.90;38.90;;;;;;6180436;23;20399;-68
2022/08/10 03:25:39;;;;;;;2.83;2.47;;;26.90;39.00;;;;;;6180443;23;20424;-67
2022/08/10 03:28:21;;;;;;;3.03;2.80;;;26.80;38.80;;;;;;6182088;23;20392;-67
2022/08/10 03:30:49;;;;;;;2.67;2.47;;;26.80;38.80;;;;;;6205671;23;20443;-68
2022/08/10 03:33:20;;;;;;;2.83;2.53;;;26.90;39.00;;;;;;6180798;23;20419;-67
2022/08/10 03:35:50;;;;;;;3.30;3.00;;;26.90;39.10;;;;;;6181073;23;20432;-68
2022/08/10 03:38:39;;;;;;;2.60;2.40;;;26.80;38.90;;;;;;6182866;23;20387;-67
2022/08/10 03:41:12;;;;;;;3.00;2.80;;;26.80;39.00;;;;;;6182287;23;20422;-68
2022/08/10 03:43:46;;;;;;;3.70;3.00;;;26.80;38.90;;;;;;6179920;23;20368;-68
2022/08/10 03:46:19;;;;;;;3.43;3.13;;;26.80;38.90;;;;;;6182182;23;20395;-67
2022/08/10 03:48:51;;;;;;;2.70;2.50;;;26.80;38.80;;;;;;6180670;23;20376;-68
2022/08/10 03:51:23;;;;;;;3.17;2.87;;;26.80;38.90;;;;;;6181716;23;20466;-68
2022/08/10 03:53:52;;;;;;;3.10;2.80;;;26.80;38.90;;;;;;6205156;23;20462;-67
2022/08/10 03:56:36;;;;;;;3.03;2.40;;;26.80;39.10;;;;;;6181544;23;20702;-67
2022/08/10 03:59:06;;;;;;;3.33;3.03;;;26.80;39.00;;;;;;6182169;23;20389;-68
2022/08/10 04:01:34;;;;;;;2.73;2.53;;;26.80;39.00;;;;;;6181255;23;20408;-68
2022/08/10 04:04:23;;;;;;;2.90;2.43;;;26.80;39.10;;;;;;6180508;23;20498;-67
2022/08/10 04:06:57;;;;;;;3.00;2.40;;;26.80;39.10;;;;;;6183099;23;20398;-67
2022/08/10 04:09:27;;;;;;;3.57;3.10;;;26.80;39.10;;;;;;6183754;23;20741;-67
2022/08/10 04:12:16;;;;;;;4.20;2.30;;;26.80;39.10;;;;;;6182681;23;21016;-67
2022/08/10 04:14:44;;;;;;;3.00;2.60;;;26.80;39.30;;;;;;6182813;23;20474;-67
2022/08/10 04:17:21;;;;;;;3.10;2.53;;;26.80;39.20;;;;;;6183806;23;20833;-67
2022/08/10 04:20:18;;;;;;;2.73;2.50;;;26.70;39.20;;;;;;6206976;23;20470;-67
2022/08/10 04:22:50;;;;;;;3.10;2.80;;;26.70;39.10;;;;;;6182666;23;20399;-67
2022/08/10 04:25:20;;;;;;;4.30;2.97;;;26.70;38.90;;;;;;6183169;23;20481;-68
2022/08/10 04:27:49;;;;;;;3.07;2.77;;;26.70;39.20;;;;;;6182205;23;20384;-68
2022/08/10 04:30:18;;;;;;;3.10;2.70;;;26.70;39.30;;;;;;6182732;23;20435;-68
2022/08/10 04:32:49;;;;;;;3.23;2.93;;;26.70;39.20;;;;;;6182094;23;20376;-67
2022/08/10 04:35:22;;;;;;;2.83;2.60;;;26.70;39.20;;;;;;6207154;23;20427;-67
2022/08/10 04:37:53;;;;;;;2.93;2.63;;;26.70;39.10;;;;;;6182739;23;20361;-67
2022/08/10 04:40:22;;;;;;;2.93;2.73;;;26.70;39.10;;;;;;6207236;23;20948;-67
2022/08/10 04:43:00;;;;;;;3.00;2.80;;;26.70;39.10;;;;;;6182052;23;20410;-67
2022/08/10 04:45:42;;;;;;;4.07;3.00;;;26.70;39.10;;;;;;6181883;23;20489;-68
2022/08/10 04:48:23;;;;;;;2.80;2.60;;;26.70;39.10;;;;;;6182553;23;20372;-67
2022/08/10 04:51:13;;;;;;;3.33;3.13;;;26.70;39.10;;;;;;6183512;23;20820;-67
2022/08/10 04:53:49;;;;;;;3.27;2.73;;;26.70;39.00;;;;;;6182809;23;20411;-67
2022/08/10 04:56:35;;;;;;;5.77;3.03;;;26.70;39.00;;;;;;6182404;23;20395;-68
2022/08/10 04:59:04;;;;;;;2.67;2.47;;;26.70;39.10;;;;;;6182541;23;20442;-67
2022/08/10 05:01:33;;;;;;;3.13;2.93;;;26.60;39.10;;;;;;6182636;23;20455;-67
2022/08/10 05:04:22;;;;;;;3.40;3.10;;;26.60;39.00;;;;;;6182084;23;20384;-67
2022/08/10 05:07:07;;;;;;;3.53;3.23;;;26.60;39.20;;;;;;6182360;23;21141;-67
2022/08/10 05:09:37;;;;;;;2.50;2.30;;;26.60;39.00;;;;;;6181857;23;21152;-67
2022/08/10 05:12:26;;;;;;;3.30;3.00;;;26.60;39.00;;;;;;6206177;23;20446;-67
2022/08/10 05:14:55;;;;;;;3.63;3.33;;;26.60;39.00;;;;;;6181721;23;20493;-68
2022/08/10 05:17:23;;;;;;;3.53;3.23;;;26.60;39.00;;;;;;6207691;23;20939;-67
2022/08/10 05:19:52;;;;;;;2.77;2.47;;;26.60;39.10;;;;;;6180625;23;20463;-67
2022/08/10 05:22:38;;;;;;;4.30;3.10;;;26.60;39.10;;;;;;6181190;23;20426;-67
2022/08/10 05:25:11;;;;;;;2.87;2.40;;;26.60;39.10;;;;;;6182406;23;20430;-67
2022/08/10 05:27:39;;;;;;;3.13;2.90;;;26.60;39.20;;;;;;6183281;23;20368;-68
2022/08/10 05:30:12;;;;;;;3.20;3.00;;;26.60;39.30;;;;;;6205803;23;20523;-68
2022/08/10 05:32:40;;;;;;;2.63;2.43;;;26.60;39.20;;;;;;6207838;23;20409;-67
2022/08/10 05:35:27;;;;;;;2.70;2.50;;;26.50;39.30;;;;;;6179795;23;20444;-68
2022/08/10 05:38:17;;;;;;;3.30;2.53;;;26.60;39.40;;;;;;6207575;23;20426;-67
2022/08/10 05:40:49;;;;;;;2.70;2.50;;;26.50;39.20;;;;;;6205551;23;20518;-68
2022/08/10 05:43:18;;;;;;;3.27;2.60;;;26.50;39.30;;;;;;6180853;23;20830;-67
2022/08/10 05:45:47;;;;;;;2.60;2.40;;;26.60;39.40;;;;;;6207592;23;21174;-68
2022/08/10 05:48:37;;;;;;;3.33;3.00;;;26.60;39.40;;;;;;6206749;23;20392;-67
2022/08/10 05:51:26;;;;;;;2.60;2.40;;;26.50;39.40;;;;;;6180915;23;20992;-67
2022/08/10 05:53:54;;;;;;;3.10;2.80;;;26.50;39.50;;;;;;6180715;23;20489;-68
2022/08/10 05:56:36;;;;;;;3.33;2.80;;;26.50;40.70;;;;;;6181211;23;20813;-67
2022/08/10 05:59:27;;;;;;;3.20;2.90;;;26.50;39.50;;;;;;6180085;23;20436;-67
2022/08/10 06:02:21;;;;;;;2.50;2.10;;;26.50;39.60;;;;;;6179525;23;21300;-68
2022/08/10 06:05:07;;;;;;;4.70;2.10;;;26.50;39.80;;;;;;6179377;23;20442;-67
2022/08/10 06:07:40;;;;;;;4.10;2.77;;;26.50;40.00;;;;;;6206356;23;20368;-67
2022/08/10 06:10:12;;;;;;;4.33;3.30;;;26.50;40.00;;;;;;6180611;23;20832;-67
2022/08/10 06:16:02;;;;;;;4.07;3.67;;;26.40;40.00;;;;;;6180354;23;20466;-67
2022/08/10 06:18:31;;;;;;;3.13;2.83;;;26.30;40.20;;;;;;6180852;23;20376;-67
2022/08/10 06:21:00;;;;;;;3.20;2.90;;;26.30;40.30;;;;;;6180423;23;20415;-67
2022/08/10 06:23:29;;;;;;;4.43;3.53;;;26.30;40.30;;;;;;6180776;23;20387;-67
2022/08/10 06:25:58;;;;;;;5.70;3.20;;;26.20;40.30;;;;;;6178593;23;20995;-68
2022/08/10 06:28:47;;;;;;;4.80;3.90;;;26.20;40.20;;;;;;6180638;23;20741;-68
2022/08/10 06:31:32;;;;;;;3.57;3.07;;;26.20;40.20;;;;;;6181137;23;20408;-67
2022/08/10 06:34:17;;;;;;;5.45;4.00;;;26.20;40.30;;;;;;6181875;22;20420;31
2022/08/10 06:36:47;;;;;;;3.80;3.50;;;26.20;40.20;;;;;;6112560;23;20434;-73
2022/08/10 06:39:15;;;;;;;7.47;3.93;;;26.20;40.30;;;;;;6091442;23;20485;-72
2022/08/10 06:42:05;;;;;;;5.13;3.70;;;26.10;40.20;;;;;;6070782;23;20473;-72
2022/08/10 06:44:52;;;;;;;4.50;4.10;;;26.20;40.20;;;;;;6091299;23;20972;-72
2022/08/10 06:47:25;;;;;;;4.07;3.67;;;26.20;39.50;;;;;;6088912;23;20372;-73
2022/08/10 06:49:58;;;;;;;3.47;3.10;;;26.30;39.50;;;;;;6088812;23;20920;-72
2022/08/10 06:52:33;;;;;;;6.83;4.10;;;26.40;38.90;;;;;;6088592;23;20407;-72
2022/08/10 06:55:03;;;;;;;4.73;3.87;;;26.40;39.00;;;;;;6087434;23;20523;-72
2022/08/10 06:57:38;;;;;;;7.83;3.60;;;26.50;38.90;;;;;;6087973;23;20414;-73
2022/08/10 07:00:13;;;;;;;5.53;4.53;;;26.60;38.40;;;;;;6062573;23;20443;-69
2022/08/10 07:02:51;;;;;;;5.37;4.00;;;26.60;38.40;;;;;;6063216;23;20383;-69
2022/08/10 07:05:23;;;;;;;7.23;4.70;;;26.60;38.00;;;;;;6066477;23;20511;-69
2022/08/10 07:07:54;;;;;;;4.20;3.80;;;26.70;37.90;;;;;;6063079;23;20371;-69
2022/08/10 07:10:25;;;;;;;4.60;4.10;;;26.70;37.80;;;;;;6063853;23;20439;-72
2022/08/10 07:13:12;;;;;;;4.37;3.93;;;26.70;37.50;;;;;;6086139;23;20537;-72
2022/08/10 07:15:43;;;;;;;6.63;3.57;;;26.70;37.50;;;;;;6087474;23;20451;-72
2022/08/10 07:18:29;;;;;;;8.87;5.20;;;26.60;37.50;;;;;;6086446;23;20467;-72
2022/08/10 07:21:00;;;;;;;4.60;4.20;;;26.50;37.50;;;;;;6089326;23;20454;-72
2022/08/10 07:23:31;;;;;;;8.30;3.93;;;26.40;37.50;;;;;;6085695;23;20388;-72
2022/08/10 07:26:21;;;;;;;4.30;3.90;;;26.10;37.50;;;;;;6088539;23;20403;-72
2022/08/10 07:28:50;;;;;;;3.83;3.53;;;26.00;38.20;;;;;;6066999;23;20853;-72
2022/08/10 07:31:22;;;;;;;3.70;3.40;;;26.10;38.30;;;;;;6088531;23;20507;-72
2022/08/10 07:34:14;;;;;;;5.43;3.47;;;26.10;38.30;;;;;;6087896;23;20382;-72
2022/08/10 07:37:02;;;;;;;4.60;3.77;;;26.10;38.30;;;;;;6035967;23;20413;-72
2022/08/10 07:39:32;;;;;;;5.20;3.67;;;26.10;38.20;;;;;;6060234;23;20714;-71
2022/08/10 07:42:24;;;;;;;3.97;3.67;;;26.10;38.30;;;;;;6037497;23;20420;-72
2022/08/10 07:44:53;;;;;;;4.73;3.70;;;26.20;38.30;;;;;;6059512;23;20435;-72
2022/08/10 07:47:28;;;;;;;3.50;3.20;;;26.20;38.40;;;;;;6064881;23;20439;-72
2022/08/10 07:50:19;;;;;;;3.73;3.43;;;26.20;38.40;;;;;;6034218;23;20440;-72
2022/08/10 07:52:49;;;;;;;8.20;4.53;;;26.20;38.40;;;;;;6061737;23;20429;-72
2022/08/10 07:55:20;;;;;;;10.77;4.80;;;26.20;37.60;;;;;;6036402;23;20452;-72
2022/08/10 07:58:11;;;;;;;10.18;4.40;;;26.10;37.70;;;;;;6037034;23;20462;-72
2022/08/10 08:00:40;;;;;;;4.40;4.00;;;26.00;37.20;;;;;;6039908;23;20211;-72
2022/08/10 08:03:12;;;;;;;4.13;3.73;;;25.90;37.50;;;;;;6064230;23;20399;-72
2022/08/10 08:05:42;;;;;;;4.90;4.00;;;26.00;37.60;;;;;;6060580;23;20503;-72
2022/08/10 08:08:31;;;;;;;5.07;4.00;;;26.00;37.70;;;;;;6060271;23;20488;-72
2022/08/10 08:11:01;;;;;;;5.60;3.73;;;26.00;37.60;;;;;;6058432;23;20440;-72
2022/08/10 08:13:31;;;;;;;6.60;3.60;;;26.10;37.70;;;;;;6053210;23;20790;-72
2022/08/10 08:16:03;;;;;;;5.97;3.80;;;26.10;37.50;;;;;;6060443;23;20760;-72
2022/08/10 08:18:52;;;;;;;4.80;3.17;;;26.10;37.60;;;;;;6058926;23;20395;-72
2022/08/10 08:21:41;;;;;;;6.60;3.60;;;26.20;37.60;;;;;;6035325;23;20412;-72
2022/08/10 08:24:34;;;;;;;4.93;3.20;;;26.20;37.70;;;;;;6060002;23;20439;-72
2022/08/10 08:27:05;;;;;;;5.17;3.47;;;26.20;37.80;;;;;;6060325;23;20389;-72
2022/08/10 08:29:36;;;;;;;9.70;4.30;;;26.20;37.80;;;;;;6060543;23;20408;-72
2022/08/10 08:32:06;;;;;;;7.60;3.33;;;26.20;37.80;;;;;;6035932;23;20984;-72
2022/08/10 08:34:38;;;;;;;5.93;3.93;;;26.30;38.00;;;;;;6038245;23;20762;-72
2022/08/10 08:37:09;;;;;;;4.60;3.10;;;26.30;38.00;;;;;;6088557;23;20447;-72
2022/08/10 08:39:39;;;;;;;7.40;3.33;;;26.30;38.10;;;;;;6089098;23;20411;-71
2022/08/10 08:42:35;;;;;;;4.87;3.40;;;26.20;37.20;;;;;;6063670;23;20435;-72
2022/08/10 08:45:21;;;;;;;17.37;4.47;;;26.10;37.00;;;;;;6063257;23;20430;-72
2022/08/10 08:48:16;;;;;;;12.30;4.70;;;26.10;36.80;;;;;;6089101;23;20383;-72
2022/08/10 08:50:57;;;;;;;14.83;4.60;;;26.00;36.80;;;;;;6063991;23;20439;-72
2022/08/10 08:53:44;;;;;;;10.73;4.23;;;26.00;36.40;;;;;;6090498;23;20423;-71
2022/08/10 08:56:40;;;;;;;9.13;3.23;;;26.00;36.70;;;;;;6090167;23;20438;-71
2022/08/10 08:59:23;;;;;;;4.50;3.30;;;25.90;35.80;;;;;;6088600;23;20896;-71
2022/08/10 09:02:08;;;;;;;5.57;3.63;;;25.90;35.90;;;;;;6088150;23;20482;-71
2022/08/10 09:05:06;;;;;;;5.63;3.83;;;25.90;35.90;;;;;;6089326;23;20769;-71
2022/08/10 09:08:05;;;;;;;5.73;3.10;;;25.90;36.00;;;;;;6065233;23;20392;-71
2022/08/10 09:15:58;;;;;;;19.00;4.80;;;26.00;36.20;;;;;;5147699;27;20300;-55
2022/08/10 09:18:38;;;;;;;6.10;3.60;;;26.10;36.50;;;;;;5155295;27;20436;-55
2022/08/10 09:21:16;;;;;;;11.00;4.00;;;26.00;36.00;;;;;;5119346;27;20945;-55
2022/08/10 09:23:52;;;;;;;6.83;3.40;;;26.00;36.20;;;;;;5105749;28;20470;-52
2022/08/10 09:26:41;;;;;;;6.83;4.00;;;26.00;36.40;;;;;;5108211;28;20429;-56
2022/08/10 09:29:14;;;;;;;12.68;4.55;;;26.10;36.20;;;;;;5098183;28;20507;-54
2022/08/10 09:31:48;;;;;;;8.70;5.03;;;26.10;36.10;;;;;;5103519;28;20333;-54
2022/08/10 09:34:49;;;;;;;8.73;4.13;;;26.10;36.20;;;;;;5098812;28;20478;-52
2022/08/10 09:37:45;;;;;;;15.63;3.90;;;26.20;36.40;;;;;;5105897;28;20436;-55
2022/08/10 09:40:42;;;;;;;9.57;3.87;;;26.20;36.60;;;;;;5107165;28;20906;-54
2022/08/10 09:43:43;;;;;;;12.83;3.50;;;26.20;36.60;;;;;;5106918;28;20828;-54
2022/08/10 09:46:22;;;;;;;12.10;3.70;;;26.20;36.70;;;;;;5104929;28;20486;-54
2022/08/10 09:49:03;;;;;;;8.40;3.20;;;26.20;36.70;;;;;;5101081;28;20976;-52
2022/08/10 09:51:41;;;;;;;5.77;3.70;;;26.20;36.80;;;;;;5125931;27;20459;-56
2022/08/10 09:54:28;;;;;;;6.87;3.80;;;26.20;36.90;;;;;;5101272;28;20463;-53
2022/08/10 09:57:11;;;;;;;7.97;4.30;;;26.20;36.20;;;;;;5106572;28;20475;-52
2022/08/10 10:00:07;;;;;;;10.60;3.97;;;26.20;35.60;;;;;;5113635;27;21031;-57
2022/08/10 10:02:47;;;;;;;5.50;4.07;;;26.20;35.70;;;;;;5110240;28;20535;-54
2022/08/10 10:05:32;;;;;;;6.20;3.73;;;26.20;36.20;;;;;;5109290;27;21030;-55
2022/08/10 10:08:09;;;;;;;4.33;3.87;;;26.20;36.20;;;;;;5101264;28;22090;-53
2022/08/10 10:10:45;;;;;;;5.13;4.03;;;26.20;36.40;;;;;;5104122;28;21026;-54
2022/08/10 10:13:25;;;;;;;7.93;3.87;;;26.20;36.50;;;;;;5102218;28;20456;-54
2022/08/10 10:16:27;;;;;;;5.40;3.50;;;26.20;36.60;;;;;;5098239;28;20449;-52
2022/08/10 10:19:07;;;;;;;4.47;3.47;;;26.20;36.70;;;;;;5101875;28;20488;-57
2022/08/10 10:21:46;;;;;;;3.70;3.37;;;26.20;36.70;;;;;;5104533;28;20447;-54
2022/08/10 10:24:32;;;;;;;3.83;3.40;;;26.20;36.80;;;;;;5100858;28;20491;-56
2022/08/10 10:27:10;;;;;;;3.90;2.80;;;26.20;36.80;;;;;;5080834;28;20943;-55
2022/08/10 10:29:53;;;;;;;9.90;3.90;;;26.20;36.90;;;;;;5091817;28;20987;-52
2022/08/10 10:32:37;;;;;;;3.63;3.20;;;26.30;36.80;;;;;;5088851;28;20958;-55
2022/08/10 10:35:22;;;;;;;5.57;3.70;;;26.30;36.80;;;;;;5083177;28;20469;-54
2022/08/10 10:37:55;;;;;;;3.40;3.10;;;26.30;36.90;;;;;;5094746;28;20510;-55
2022/08/10 10:40:42;;;;;;;3.90;2.97;;;26.30;36.70;;;;;;5087600;28;20469;-55
2022/08/10 10:43:26;;;;;;;3.70;3.40;;;26.30;36.90;;;;;;5082350;28;20504;-55
2022/08/10 10:46:04;;;;;;;5.13;3.40;;;26.30;36.90;;;;;;5083555;28;20921;-54
2022/08/10 10:48:41;;;;;;;2.93;2.73;;;26.30;36.90;;;;;;5102130;28;20452;-56
2022/08/10 10:51:18;;;;;;;5.50;3.10;;;26.20;36.70;;;;;;5078442;28;20465;-52
2022/08/10 10:54:01;;;;;;;3.57;3.23;;;26.30;36.80;;;;;;5086789;28;20472;-56
2022/08/10 10:56:39;;;;;;;4.10;3.80;;;26.30;36.90;;;;;;5088084;28;20442;-53
2022/08/10 10:59:21;;;;;;;6.97;3.23;;;26.30;36.90;;;;;;5087352;28;21027;-53
2022/08/10 11:02:21;;;;;;;5.40;3.00;;;26.30;36.90;;;;;;5104814;28;20437;-53
2022/08/10 11:04:58;;;;;;;3.67;2.90;;;26.30;36.90;;;;;;5101009;28;20496;-55
2022/08/10 11:07:34;;;;;;;4.90;3.87;;;26.30;36.70;;;;;;5090605;28;20839;-56
2022/08/10 11:10:11;;;;;;;3.57;3.27;;;26.30;36.80;;;;;;5088569;28;20471;-53
2022/08/10 11:13:33;;;;;;;2.97;2.77;;;26.30;36.90;;;;;;5080463;28;20895;-53
2022/08/10 11:16:30;;;;;;;3.17;2.87;;;26.30;36.70;;;;;;5084973;28;20469;-53
2022/08/10 11:19:07;;;;;;;3.40;3.10;;;26.30;37.00;;;;;;5079230;28;20440;-55
2022/08/10 11:21:50;;;;;;;2.90;2.70;;;26.30;36.90;;;;;;5088902;28;20445;-53
2022/08/10 11:24:25;;;;;;;3.00;2.80;;;26.30;36.90;;;;;;5088655;28;20473;-55
2022/08/10 11:27:21;;;;;;;2.63;2.43;;;26.30;36.90;;;;;;5099836;28;20528;-52
2022/08/10 11:30:02;;;;;;;7.30;3.40;;;26.30;36.80;;;;;;5103233;28;21015;-54
2022/08/10 11:32:41;;;;;;;6.13;3.20;;;26.40;36.90;;;;;;5103848;28;20497;-52
2022/08/10 11:35:20;;;;;;;5.90;3.27;;;26.40;36.30;;;;;;5103783;27;20472;-55
2022/08/10 11:37:58;;;;;;;3.50;3.17;;;26.40;36.50;;;;;;5105084;28;20441;-54
2022/08/10 11:40:57;;;;;;;3.83;3.10;;;26.40;36.50;;;;;;5105026;27;20496;-54
2022/08/10 11:43:48;;;;;;;4.80;3.43;;;26.40;36.60;;;;;;5103762;28;20888;-54
2022/08/10 11:46:22;;;;;;;2.73;2.53;;;26.40;36.70;;;;;;5088012;28;20453;-56
2022/08/10 11:49:13;;;;;;;5.10;2.73;;;26.40;36.50;;;;;;5087722;28;20445;-55
2022/08/10 11:51:47;;;;;;;3.40;3.10;;;26.40;36.50;;;;;;5085336;28;20445;-54
2022/08/10 11:54:25;;;;;;;5.30;2.90;;;26.40;36.40;;;;;;5085157;28;21097;-54
2022/08/10 11:56:56;;;;;;;3.57;3.23;;;26.40;36.40;;;;;;5089937;28;20827;-54
2022/08/10 12:02:32;;;;;;;3.33;2.80;;;26.40;36.30;;;;;;5084460;28;21042;-53
2022/08/10 12:05:07;;;;;;;3.50;2.97;;;26.40;35.90;;;;;;5083211;28;20495;-55
2022/08/10 12:07:41;;;;;;;4.20;3.80;;;26.40;34.20;;;;;;5105031;28;20498;-57
2022/08/10 12:10:31;;;;;;;2.83;2.63;;;26.50;32.80;;;;;;5087098;28;20949;-53
2022/08/10 12:13:09;;;;;;;4.80;2.83;;;26.50;31.70;;;;;;5086009;28;20594;-53
2022/08/10 12:15:46;;;;;;;3.17;2.87;;;26.60;31.50;;;;;;5080069;28;20474;-54
2022/08/10 12:18:20;;;;;;;3.27;2.97;;;26.60;32.10;;;;;;5086402;28;20940;-54
2022/08/10 12:20:55;;;;;;;3.10;2.80;;;26.60;32.70;;;;;;5103423;28;20983;-53
2022/08/10 12:23:30;;;;;;;3.47;3.17;;;26.60;32.80;;;;;;5088016;28;20461;-52
2022/08/10 12:26:12;;;;;;;4.43;2.97;;;26.60;33.00;;;;;;5088881;28;20445;-55
2022/08/10 12:28:49;;;;;;;2.47;2.37;;;26.60;33.40;;;;;;5087876;28;20498;-52
2022/08/10 12:31:26;;;;;;;3.20;2.90;;;26.50;33.30;;;;;;5089497;28;20456;-54
2022/08/10 12:34:08;;;;;;;4.73;2.67;;;26.50;33.60;;;;;;5088220;28;20464;-54
2022/08/10 12:36:41;;;;;;;3.00;2.70;;;26.50;33.80;;;;;;5088635;28;20529;-52
2022/08/10 12:39:16;;;;;;;3.10;2.90;;;26.50;33.80;;;;;;5088158;28;20476;-52
2022/08/10 12:41:49;;;;;;;3.40;2.83;;;26.50;34.00;;;;;;5085343;28;20473;-54
2022/08/10 12:44:27;;;;;;;3.20;3.00;;;26.50;34.00;;;;;;5088630;28;21164;-52
2022/08/10 12:47:22;;;;;;;2.80;2.60;;;26.60;34.20;;;;;;5087523;28;20434;-54
2022/08/10 12:50:00;;;;;;;4.43;3.07;;;26.50;34.30;;;;;;5082696;28;20473;-55
2022/08/10 12:52:55;;;;;;;2.83;2.63;;;26.50;34.30;;;;;;5089003;28;20582;-53
2022/08/10 12:55:26;;;;;;;2.70;2.50;;;26.50;34.40;;;;;;5106870;22;20473;-66
2022/08/10 12:57:57;;;;;;;3.43;3.13;;;26.60;34.50;;;;;;5048636;28;20442;-67
2022/08/10 13:00:30;;;;;;;3.70;3.40;;;26.50;34.70;;;;;;5046950;28;20775;-67
2022/08/10 13:03:01;;;;;;;3.03;2.70;;;26.50;34.80;;;;;;5033700;28;20444;-67
2022/08/10 13:05:32;;;;;;;2.63;2.43;;;26.60;34.80;;;;;;5049092;28;20472;-67
2022/08/10 13:11:11;;;;;;;3.07;2.87;;;26.60;34.80;;;;;;5055217;28;20521;-72
2022/08/10 13:14:06;;;;;;;3.33;3.10;;;26.60;34.90;;;;;;5055216;28;20485;-72
2022/08/10 13:16:36;;;;;;;2.80;2.60;;;26.60;34.90;;;;;;5057839;28;20462;-72
2022/08/10 13:19:07;;;;;;;2.80;2.60;;;26.60;35.00;;;;;;5039622;28;20542;-72
2022/08/10 13:21:38;;;;;;;2.77;2.57;;;26.60;35.10;;;;;;5060008;28;20566;-72
2022/08/10 13:24:11;;;;;;;2.70;2.33;;;26.60;35.10;;;;;;5035630;28;20772;-72
2022/08/10 13:26:50;;;;;;;2.70;2.50;;;26.60;35.10;;;;;;5037990;28;20442;-72
2022/08/10 13:29:43;;;;;;;2.70;2.50;;;26.60;35.10;;;;;;5050820;28;20605;-72
2022/08/10 13:32:19;;;;;;;3.10;2.30;;;26.60;35.20;;;;;;5040353;28;20521;-72
2022/08/10 13:34:51;;;;;;;2.63;2.43;;;26.60;35.20;;;;;;5030961;28;20452;-72
2022/08/10 13:37:23;;;;;;;3.10;2.90;;;26.70;35.50;;;;;;5046124;28;20466;-71
2022/08/10 13:39:54;;;;;;;2.70;2.50;;;26.60;35.40;;;;;;5040979;28;21081;-72
2022/08/10 13:42:30;;;;;;;2.67;2.47;;;26.60;35.50;;;;;;5032814;28;20516;-72
2022/08/10 13:45:07;;;;;;;3.10;2.90;;;26.60;35.40;;;;;;5047744;28;20795;-72
2022/08/10 13:47:36;;;;;;;2.43;2.30;;;26.60;35.40;;;;;;5039339;28;21328;-72
2022/08/10 13:50:24;;;;;;;2.87;2.60;;;26.70;35.40;;;;;;5041062;28;20485;-72
2022/08/10 13:53:05;;;;;;;2.30;2.20;;;26.70;35.40;;;;;;5053170;28;20438;-72
2022/08/10 13:55:43;;;;;;;3.20;2.60;;;26.70;35.50;;;;;;5056471;28;20551;-72
2022/08/10 13:58:26;;;;;;;2.80;2.60;;;26.70;35.50;;;;;;5042094;28;21550;-72
2022/08/10 14:00:56;;;;;;;2.77;2.60;;;26.70;35.60;;;;;;5047055;28;20486;-72